createdAt,value
2023-03-13T00:12:16.496Z,27.9
2023-03-13T00:27:25.967Z,22.7
2023-03-13T00:42:35.822Z,25.5
2023-03-13T00:57:45.441Z,23.3
2023-03-13T01:12:56.038Z,28.9
2023-03-13T01:28:05.827Z,17
2023-03-13T01:43:27.967Z,24.5
2023-03-13T01:58:38.180Z,24.2
2023-03-13T02:13:47.642Z,22.5
2023-03-13T02:28:56.656Z,22.6
2023-03-13T02:44:06.353Z,30
2023-03-13T02:59:15.877Z,20.2
2023-03-13T03:14:25.314Z,20.6
2023-03-13T03:29:34.607Z,15.8
2023-03-13T03:44:43.707Z,25.2
2023-03-13T03:59:53.068Z,19.6
2023-03-13T04:15:02.273Z,20.8
2023-03-13T04:30:12.009Z,33.3
2023-03-13T04:45:21.542Z,18.2
2023-03-13T05:00:31.009Z,29.2
2023-03-13T05:15:41.008Z,15.4
2023-03-13T05:30:50.826Z,14.4
2023-03-13T05:46:00.815Z,7
2023-03-13T06:01:11.114Z,10.9
2023-03-13T06:17:44.274Z,13.4
2023-03-13T06:32:55.371Z,7.9
2023-03-13T06:48:05.318Z,4.1
2023-03-13T07:03:16.237Z,5.9
2023-03-13T07:18:26.241Z,4.7
2023-03-13T07:33:36.693Z,3.2
2023-03-13T07:48:47.336Z,4
2023-03-13T08:03:57.080Z,4
2023-03-13T08:19:06.951Z,3.6
2023-03-13T08:34:18.152Z,4.3
2023-03-13T08:49:28.038Z,5.1
2023-03-13T09:04:37.910Z,3.7
2023-03-13T09:20:01.686Z,4.4
2023-03-13T09:35:11.951Z,3.4
2023-03-13T09:50:21.619Z,5.9
2023-03-13T10:05:31.883Z,7.1
2023-03-13T10:20:42.145Z,3.5
2023-03-13T10:35:52.408Z,3.7
2023-03-13T10:51:03.196Z,4
2023-03-13T11:06:14.095Z,5.4
2023-03-13T11:21:23.754Z,7.6
2023-03-13T11:36:33.833Z,6.2
2023-03-13T11:51:43.977Z,5.7
2023-03-13T12:06:54.341Z,3.8
2023-03-13T12:22:05.080Z,7
2023-03-13T12:37:15.652Z,3
2023-03-13T12:52:25.656Z,2.1
2023-03-13T13:07:35.154Z,2.7
2023-03-13T13:22:44.742Z,8.1
2023-03-13T13:37:54.469Z,1.9
2023-03-13T13:53:05.184Z,2.9
2023-03-13T14:08:14.846Z,2.2
2023-03-13T14:23:24.871Z,3.9
2023-03-13T14:38:34.342Z,3.3
2023-03-13T14:53:44.972Z,1.4
2023-03-13T15:08:54.539Z,1.5
2023-03-13T15:24:09.403Z,2.4
2023-03-13T15:39:19.202Z,4
2023-03-13T15:54:29.783Z,1.6
2023-03-13T16:09:39.734Z,1.3
2023-03-13T16:24:49.027Z,1.2
2023-03-13T16:39:59.187Z,3.2
2023-03-13T16:55:08.861Z,3.8
2023-03-13T17:10:19.413Z,1.5
2023-03-13T17:25:29.401Z,2.1
2023-03-13T17:40:39.299Z,2
2023-03-13T17:55:48.832Z,2.7
2023-03-13T18:10:58.749Z,4.6
2023-03-13T18:26:08.340Z,2.3
2023-03-13T18:41:17.494Z,3.2
2023-03-13T18:56:27.558Z,2.2
2023-03-13T19:11:36.947Z,3
2023-03-13T19:26:46.716Z,3.1
2023-03-13T19:41:58.909Z,2.2
2023-03-13T19:57:09.200Z,3.5
2023-03-13T20:12:19.182Z,5.9
2023-03-13T20:27:28.866Z,4.4
2023-03-13T20:42:46.152Z,3.2
2023-03-13T20:57:56.467Z,2.9
2023-03-13T21:13:11.388Z,3.2
2023-03-13T21:28:21.502Z,3.5
2023-03-13T21:43:31.389Z,2.7
2023-03-13T21:58:41.439Z,4.9
2023-03-13T22:13:50.992Z,7.6
2023-03-13T22:29:00.335Z,3.8
2023-03-13T22:44:10.046Z,3.6
2023-03-13T22:59:19.476Z,7
2023-03-13T23:14:29.593Z,3.7
2023-03-13T23:29:38.916Z,7.1
2023-03-13T23:44:48.260Z,6.3
